createdAt,value
2023-03-27T00:02:57.487Z,98970.42
2023-03-27T00:06:07.873Z,98970.36
2023-03-27T00:08:38.032Z,98966.45
2023-03-27T00:11:09.827Z,98966.27
2023-03-27T00:13:48.986Z,98966.04
2023-03-27T00:16:23.555Z,98964.95
2023-03-27T00:19:02.606Z,98962.88
2023-03-27T00:21:38.573Z,98963.55
2023-03-27T00:24:16.821Z,98956.02
2023-03-27T00:26:50.335Z,98955.17
2023-03-27T00:29:21.433Z,98961.27
2023-03-27T00:31:56.371Z,98962.21
2023-03-27T00:34:29.215Z,98959.01
2023-03-27T00:36:59.559Z,98957.86
2023-03-27T00:39:31.524Z,98953.30
2023-03-27T00:42:02.352Z,98951.71
2023-03-27T00:44:38.012Z,98951.95
2023-03-27T00:47:14.463Z,98951.37
2023-03-27T00:49:45.649Z,98949.36
2023-03-27T00:52:19.652Z,98952.98
2023-03-27T00:54:51.206Z,98952.00
2023-03-27T00:57:22.316Z,98959.36
2023-03-27T00:59:52.735Z,98960.17
2023-03-27T01:02:22.889Z,98966.09
2023-03-27T01:04:55.999Z,98966.95
2023-03-27T01:07:28.260Z,98971.67
2023-03-27T01:10:01.823Z,98975.88
2023-03-27T01:13:11.901Z,98978.16
2023-03-27T01:16:44.265Z,98979.58
2023-03-27T01:19:46.234Z,98985.57
2023-03-27T01:22:41.229Z,98983.35
2023-03-27T01:25:18.074Z,98984.14
2023-03-27T01:28:14.550Z,98984.09
2023-03-27T01:31:25.394Z,98980.84
2023-03-27T01:34:30.070Z,98987.78
2023-03-27T01:37:24.961Z,98986.98
2023-03-27T01:40:04.721Z,98988.59
2023-03-27T01:42:36.002Z,98995.79
2023-03-27T01:45:17.625Z,98995.90
2023-03-27T01:48:22.359Z,99000.80
2023-03-27T01:50:56.425Z,98995.75
2023-03-27T01:53:52.835Z,98997.30
2023-03-27T01:56:27.232Z,98988.98
2023-03-27T01:59:03.793Z,98995.58
2023-03-27T02:01:36.868Z,98994.33
2023-03-27T02:04:14.334Z,98993.70
2023-03-27T02:06:46.539Z,98988.80
2023-03-27T02:09:26.205Z,98991.27
2023-03-27T02:12:05.213Z,98994.48
2023-03-27T02:14:45.290Z,98997.37
2023-03-27T02:17:19.889Z,98998.23
2023-03-27T02:20:17.983Z,98995.20
2023-03-27T02:22:51.125Z,99000.12
2023-03-27T02:25:36.750Z,99001.98
2023-03-27T02:29:03.377Z,99005.20
2023-03-27T02:31:58.138Z,99006.54
2023-03-27T02:35:17.240Z,99012.55
2023-03-27T02:38:13.113Z,99024.83
2023-03-27T02:40:59.953Z,99028.21
2023-03-27T02:44:02.932Z,99029.97
2023-03-27T02:47:12.202Z,99026.91
2023-03-27T02:50:05.193Z,99028.57
2023-03-27T02:52:56.242Z,99028.31
2023-03-27T02:55:28.263Z,99028.27
2023-03-27T02:57:59.342Z,99028.45
2023-03-27T03:00:45.175Z,99028.84
2023-03-27T03:04:19.834Z,99032.88
2023-03-27T03:07:18.938Z,99037.35
2023-03-27T03:09:48.289Z,99038.63
2023-03-27T03:12:24.065Z,99041.83
2023-03-27T03:14:58.852Z,99045.55
2023-03-27T03:17:29.526Z,99046.23
2023-03-27T03:19:59.451Z,99043.56
2023-03-27T03:22:30.246Z,99045.72
2023-03-27T03:25:00.718Z,99047.02
2023-03-27T03:27:34.287Z,99043.78
2023-03-27T03:30:17.627Z,99036.00
2023-03-27T03:33:21.148Z,99039.90
2023-03-27T03:35:53.132Z,99041.14
2023-03-27T03:38:38.114Z,99045.51
2023-03-27T03:41:16.453Z,99045.10
2023-03-27T03:43:46.406Z,99046.44
2023-03-27T03:46:15.935Z,99052.56
2023-03-27T03:48:44.036Z,99053.79
2023-03-27T03:51:13.262Z,99058.15
2023-03-27T03:53:46.267Z,99058.42
2023-03-27T03:56:15.729Z,99070.00
2023-03-27T03:58:52.567Z,99078.99
2023-03-27T04:01:23.598Z,99082.33
2023-03-27T04:04:02.946Z,99082.20
2023-03-27T04:06:44.953Z,99090.86
2023-03-27T04:09:13.115Z,99088.68
2023-03-27T04:12:09.478Z,99092.02
2023-03-27T04:14:46.311Z,99091.90
2023-03-27T04:17:37.861Z,99088.77
2023-03-27T04:20:07.895Z,99087.18
2023-03-27T04:22:38.306Z,99094.45
2023-03-27T04:25:13.089Z,99087.00
2023-03-27T04:27:44.033Z,99090.00
2023-03-27T04:30:34.844Z,99088.42
2023-03-27T04:33:53.081Z,99095.02
2023-03-27T04:36:43.097Z,99100.36
2023-03-27T04:39:12.870Z,99103.11
2023-03-27T04:41:46.420Z,99099.79
2023-03-27T04:44:18.219Z,99101.65
2023-03-27T04:46:51.321Z,99102.23
2023-03-27T04:49:20.301Z,99109.94
2023-03-27T04:52:03.202Z,99109.80
2023-03-27T04:54:37.546Z,99107.93
2023-03-27T04:57:10.986Z,99108.70
2023-03-27T04:59:45.544Z,99110.84
2023-03-27T05:02:52.880Z,99112.61
2023-03-27T05:05:38.079Z,99121.21
2023-03-27T05:08:12.150Z,99118.27
2023-03-27T05:10:45.456Z,99120.04
2023-03-27T05:13:13.622Z,99125.48
2023-03-27T05:15:56.315Z,99124.14
2023-03-27T05:18:35.224Z,99123.80
2023-03-27T05:21:14.258Z,99116.73
2023-03-27T05:23:57.159Z,99116.58
2023-03-27T05:26:32.873Z,99118.23
2023-03-27T05:29:10.246Z,99116.83
2023-03-27T05:32:10.331Z,99121.17
2023-03-27T05:34:50.868Z,99123.31
2023-03-27T05:37:37.029Z,99121.10
2023-03-27T05:40:40.362Z,99104.85
2023-03-27T05:43:40.211Z,99117.79
2023-03-27T05:46:11.376Z,99119.16
2023-03-27T05:48:46.600Z,99117.80
2023-03-27T05:51:18.497Z,99120.88
2023-03-27T05:53:49.382Z,99126.09
2023-03-27T05:56:41.933Z,99126.52
2023-03-27T05:59:13.550Z,99128.14
2023-03-27T06:01:45.433Z,99131.14
2023-03-27T06:04:22.690Z,99128.80
2023-03-27T06:07:11.450Z,99129.48
2023-03-27T06:09:50.309Z,99129.37
2023-03-27T06:13:09.932Z,99133.82
2023-03-27T06:15:58.848Z,99135.66
2023-03-27T06:18:49.516Z,99135.63
2023-03-27T06:21:20.789Z,99130.55
2023-03-27T06:24:04.145Z,99132.42
2023-03-27T06:26:50.869Z,99132.84
2023-03-27T06:29:24.485Z,99134.34
2023-03-27T06:31:57.857Z,99133.55
2023-03-27T06:34:53.236Z,99139.29
2023-03-27T06:38:04.578Z,99137.73
2023-03-27T06:40:37.980Z,99136.66
2023-03-27T06:43:20.060Z,99134.27
2023-03-27T06:45:58.816Z,99139.55
2023-03-27T06:49:00.811Z,99140.14
2023-03-27T06:51:36.530Z,99142.66
2023-03-27T06:54:06.475Z,99144.05
2023-03-27T06:56:41.764Z,99146.30
2023-03-27T06:59:40.407Z,99147.77
2023-03-27T07:02:13.813Z,99147.78
2023-03-27T07:05:05.340Z,99152.75
2023-03-27T07:07:49.008Z,99151.02
2023-03-27T07:10:24.241Z,99151.27
2023-03-27T07:12:55.559Z,99150.92
2023-03-27T07:15:29.762Z,99151.92
2023-03-27T07:18:02.269Z,99150.60
2023-03-27T07:20:38.724Z,99150.04
2023-03-27T07:23:11.921Z,99144.81
2023-03-27T07:26:14.752Z,99147.91
2023-03-27T07:29:12.701Z,99148.92
2023-03-27T07:31:57.663Z,99146.96
2023-03-27T07:34:37.835Z,99143.66
2023-03-27T07:37:09.546Z,99143.92
2023-03-27T07:39:46.062Z,99142.05
2023-03-27T07:42:18.902Z,99145.33
2023-03-27T07:45:04.878Z,99142.98
2023-03-27T07:48:28.167Z,99144.83
2023-03-27T07:51:12.863Z,99144.86
2023-03-27T07:54:06.257Z,99148.70
2023-03-27T07:57:13.322Z,99147.16
2023-03-27T08:06:36.856Z,99149.33
2023-03-27T08:09:07.508Z,99152.05
2023-03-27T08:11:45.500Z,99149.84
2023-03-27T08:14:14.017Z,99157.73
2023-03-27T08:16:49.437Z,99157.06
2023-03-27T08:19:23.319Z,99157.40
2023-03-27T08:21:58.404Z,99155.20
2023-03-27T08:24:29.958Z,99152.55
2023-03-27T08:27:12.284Z,99156.75
2023-03-27T08:29:48.778Z,99156.93
2023-03-27T08:32:17.775Z,99158.45
2023-03-27T08:35:32.164Z,99162.30
2023-03-27T08:38:25.664Z,99156.66
2023-03-27T08:42:19.218Z,99155.05
2023-03-27T08:44:59.076Z,99158.73
2023-03-27T08:47:44.699Z,99154.07
2023-03-27T08:50:34.424Z,99155.86
2023-03-27T08:54:36.158Z,99157.28
2023-03-27T08:57:18.922Z,99149.05
2023-03-27T09:00:06.516Z,99144.16
2023-03-27T09:04:21.176Z,99139.06
2023-03-27T09:07:18.913Z,99149.02
2023-03-27T09:10:36.055Z,99151.27
2023-03-27T09:13:26.976Z,99143.98
2023-03-27T09:16:12.507Z,99137.84
2023-03-27T09:19:39.697Z,99136.87
2023-03-27T09:22:25.424Z,99135.63
2023-03-27T09:25:32.231Z,99139.59
2023-03-27T09:28:20.933Z,99136.50
2023-03-27T09:31:41.157Z,99133.63
2023-03-27T09:34:15.840Z,99139.89
2023-03-27T09:37:01.847Z,99140.07
2023-03-27T09:39:47.921Z,99142.45
2023-03-27T09:42:43.076Z,99137.08
2023-03-27T09:45:16.853Z,99142.99
2023-03-27T09:48:06.050Z,99136.13
2023-03-27T09:50:59.737Z,99132.50
2023-03-27T09:54:04.471Z,99137.65
2023-03-27T09:56:41.708Z,99142.03
2023-03-27T09:59:56.629Z,99133.35
2023-03-27T10:02:31.825Z,99124.52
2023-03-27T10:05:55.093Z,99129.66
2023-03-27T10:08:54.936Z,99139.18
2023-03-27T10:12:00.121Z,99140.34
2023-03-27T10:15:39.490Z,99137.02
2023-03-27T10:18:27.219Z,99127.45
2023-03-27T10:21:44.032Z,99132.52
2023-03-27T10:24:36.362Z,99132.98
2023-03-27T10:27:51.945Z,99117.89
2023-03-27T10:30:44.315Z,99110.29
2023-03-27T10:33:43.946Z,99108.48
2023-03-27T10:36:20.280Z,99110.77
2023-03-27T10:39:00.412Z,99111.27
2023-03-27T10:41:50.930Z,99105.41
2023-03-27T10:44:25.335Z,99107.66
2023-03-27T10:47:36.291Z,99107.88
2023-03-27T10:50:19.225Z,99106.80
2023-03-27T10:52:49.077Z,99106.13
2023-03-27T10:56:16.288Z,99111.36
2023-03-27T10:59:25.490Z,99104.22
2023-03-27T11:02:11.908Z,99090.01
2023-03-27T11:05:36.238Z,99086.50
2023-03-27T11:08:23.758Z,99078.77
2023-03-27T11:10:58.188Z,99085.77
2023-03-27T11:13:36.437Z,99088.89
2023-03-27T11:16:30.837Z,99080.59
2023-03-27T11:19:40.049Z,99077.89
2023-03-27T11:22:44.638Z,99081.97
2023-03-27T11:25:26.826Z,99085.24
2023-03-27T11:28:16.995Z,99085.61
2023-03-27T11:31:13.143Z,99081.77
2023-03-27T11:34:02.183Z,99080.11
2023-03-27T11:36:42.823Z,99078.80
2023-03-27T11:44:11.855Z,99074.91
2023-03-27T11:47:47.498Z,99069.11
2023-03-27T11:50:30.909Z,99074.05
2023-03-27T11:53:23.043Z,99072.97
2023-03-27T11:56:24.870Z,99068.70
2023-03-27T12:00:02.983Z,99064.61
2023-03-27T12:02:54.661Z,99071.54
2023-03-27T12:06:04.573Z,99069.64
2023-03-27T12:09:00.001Z,99074.30
2023-03-27T12:12:15.153Z,99067.16
2023-03-27T12:15:18.009Z,99066.98
2023-03-27T12:17:59.991Z,99057.33
2023-03-27T12:20:54.104Z,99056.58
2023-03-27T12:23:44.015Z,99061.19
2023-03-27T12:27:06.084Z,99060.65
2023-03-27T12:30:04.392Z,99054.92
2023-03-27T12:33:06.247Z,99057.78
2023-03-27T12:36:02.543Z,99054.70
2023-03-27T12:39:00.697Z,99056.83
2023-03-27T12:41:30.914Z,99058.54
2023-03-27T12:44:21.356Z,99060.01
2023-03-27T12:47:12.114Z,99050.78
2023-03-27T12:49:57.013Z,99044.70
2023-03-27T12:52:31.344Z,99046.39
2023-03-27T12:55:26.993Z,99048.26
2023-03-27T12:58:43.776Z,99058.31
2023-03-27T13:02:15.674Z,99059.02
2023-03-27T13:04:53.296Z,99049.30
2023-03-27T13:07:37.135Z,99043.19
2023-03-27T13:10:50.411Z,99040.25
2023-03-27T13:13:32.962Z,99042.31
2023-03-27T13:16:12.279Z,99033.26
2023-03-27T13:19:14.446Z,99030.33
2023-03-27T13:22:31.986Z,99030.63
2023-03-27T13:25:36.480Z,99027.84
2023-03-27T13:28:38.541Z,99026.70
2023-03-27T13:31:49.656Z,99020.68
2023-03-27T13:35:03.509Z,99023.23
2023-03-27T13:37:43.929Z,99019.44
2023-03-27T13:40:33.014Z,99015.63
2023-03-27T13:43:34.583Z,99010.95
2023-03-27T13:46:17.708Z,99012.78
2023-03-27T13:49:08.004Z,99011.00
2023-03-27T13:52:01.429Z,99006.73
2023-03-27T13:55:14.881Z,99010.27
2023-03-27T13:58:24.197Z,99010.07
2023-03-27T14:01:36.769Z,99009.98
2023-03-27T14:04:42.199Z,99008.00
2023-03-27T14:08:05.297Z,99003.73
2023-03-27T14:11:17.463Z,99004.40
2023-03-27T14:14:20.998Z,99005.13
2023-03-27T14:17:22.131Z,99001.58
2023-03-27T14:20:25.624Z,98991.79
2023-03-27T14:23:13.512Z,99003.05
2023-03-27T14:26:25.785Z,98997.84
2023-03-27T14:29:25.118Z,98997.55
2023-03-27T14:32:15.313Z,98993.27
2023-03-27T14:34:53.821Z,98992.92
2023-03-27T14:37:43.599Z,98993.88
2023-03-27T14:40:56.050Z,98996.92
2023-03-27T14:43:38.872Z,98996.90
2023-03-27T14:46:12.015Z,98995.80
2023-03-27T14:48:46.700Z,98995.46
2023-03-27T14:51:19.351Z,98990.39
2023-03-27T14:53:58.785Z,98988.88
2023-03-27T14:56:56.401Z,98990.08
2023-03-27T14:59:49.892Z,98993.05
2023-03-27T15:02:34.264Z,98990.91
2023-03-27T15:05:24.533Z,98985.46
2023-03-27T15:08:23.528Z,98987.27
2023-03-27T15:11:17.211Z,98986.98
2023-03-27T15:14:06.539Z,98984.52
2023-03-27T15:16:40.524Z,98984.36
2023-03-27T15:19:33.288Z,98981.89
2023-03-27T15:22:10.903Z,98982.96
2023-03-27T15:25:00.608Z,98987.84
2023-03-27T15:27:59.788Z,98987.52
2023-03-27T15:30:51.781Z,98985.45
2023-03-27T15:33:39.881Z,98988.95
2023-03-27T15:36:33.543Z,98992.69
2023-03-27T15:40:55.346Z,98993.02
2023-03-27T15:43:32.645Z,98990.30
2023-03-27T15:46:27.664Z,98992.48
2023-03-27T15:49:45.687Z,98993.38
2023-03-27T15:52:34.824Z,98983.53
2023-03-27T15:55:57.483Z,98989.21
2023-03-27T15:59:10.556Z,98986.30
2023-03-27T16:02:16.275Z,98986.52
2023-03-27T16:05:36.963Z,98985.06
2023-03-27T16:08:20.110Z,98981.89
2023-03-27T16:11:06.123Z,98981.02
2023-03-27T16:14:00.692Z,98982.40
2023-03-27T16:16:39.907Z,98979.52
2023-03-27T16:19:26.205Z,98979.56
2023-03-27T16:22:10.685Z,98982.16
2023-03-27T16:24:55.739Z,98979.48
2023-03-27T16:28:11.263Z,98979.20
2023-03-27T16:30:57.145Z,98979.77
2023-03-27T16:33:44.988Z,98976.83
2023-03-27T16:45:52.021Z,98980.91
2023-03-27T16:48:22.707Z,98979.52
2023-03-27T16:50:57.180Z,98978.80
2023-03-27T16:53:30.868Z,98981.05
2023-03-27T16:56:09.096Z,98979.93
2023-03-27T16:58:50.195Z,98984.84
2023-03-27T17:01:21.871Z,98984.42
2023-03-27T17:04:43.173Z,98986.27
2023-03-27T17:07:47.875Z,98984.27
2023-03-27T17:10:47.403Z,98988.27
2023-03-27T17:13:32.205Z,98987.90
2023-03-27T17:16:09.559Z,98989.15
2023-03-27T17:18:49.818Z,98988.68
2023-03-27T17:21:37.632Z,98988.81
2023-03-27T17:24:49.114Z,98977.85
2023-03-27T17:37:07.415Z,98978.73
2023-03-27T17:45:25.396Z,98982.48
2023-03-27T17:53:20.573Z,98976.09
2023-03-27T17:56:10.117Z,98976.27
2023-03-27T17:58:53.056Z,98973.82
2023-03-27T18:02:02.991Z,98970.16
2023-03-27T18:06:10.321Z,98968.25
2023-03-27T18:09:17.551Z,98955.58
2023-03-27T18:12:03.044Z,98963.58
2023-03-27T18:14:52.088Z,98961.21
2023-03-27T18:17:28.727Z,98959.15
2023-03-27T18:19:59.151Z,98961.67
2023-03-27T18:22:33.905Z,98956.57
2023-03-27T18:25:18.128Z,98955.89
2023-03-27T18:27:46.620Z,98959.20
2023-03-27T18:30:23.336Z,98959.45
2023-03-27T18:33:04.918Z,98959.38
2023-03-27T18:35:42.628Z,98962.55
2023-03-27T18:38:18.330Z,98967.31
2023-03-27T18:40:52.490Z,98966.86
2023-03-27T18:43:50.391Z,98969.71
2023-03-27T18:46:26.027Z,98966.91
2023-03-27T18:49:30.657Z,98968.55
2023-03-27T18:52:04.392Z,98971.98
2023-03-27T18:55:11.869Z,98968.11
2023-03-27T18:57:54.288Z,98968.89
2023-03-27T19:00:30.684Z,98969.27
2023-03-27T19:03:09.769Z,98972.79
2023-03-27T19:05:39.793Z,98972.85
2023-03-27T19:08:19.798Z,98974.59
2023-03-27T19:11:02.254Z,98977.88
2023-03-27T19:14:10.263Z,98973.39
2023-03-27T19:16:54.450Z,98973.27
2023-03-27T19:20:11.507Z,98975.74
2023-03-27T19:23:17.571Z,98966.59
2023-03-27T19:25:55.867Z,98965.38
2023-03-27T19:28:32.781Z,98958.52
2023-03-27T19:31:37.468Z,98960.94
2023-03-27T19:34:08.851Z,98953.58
2023-03-27T19:36:45.428Z,98953.30
2023-03-27T19:42:45.773Z,98948.09
2023-03-27T19:45:25.136Z,98943.95
2023-03-27T19:48:02.828Z,98947.43
2023-03-27T19:50:34.117Z,98943.71
2023-03-27T19:53:21.397Z,98939.94
2023-03-27T19:56:33.587Z,98944.11
2023-03-27T19:59:13.076Z,98939.14
2023-03-27T20:01:51.073Z,98942.69
2023-03-27T20:04:27.855Z,98940.39
2023-03-27T20:07:03.153Z,98939.07
2023-03-27T20:09:35.562Z,98929.51
2023-03-27T20:12:34.143Z,98928.14
2023-03-27T20:15:12.532Z,98921.96
2023-03-27T20:17:48.839Z,98919.41
2023-03-27T20:20:23.148Z,98916.63
2023-03-27T20:23:03.276Z,98912.56
2023-03-27T20:25:38.262Z,98909.57
2023-03-27T20:28:09.451Z,98907.94
2023-03-27T20:30:39.761Z,98903.10
2023-03-27T20:33:12.904Z,98905.02
2023-03-27T20:35:47.658Z,98905.70
2023-03-27T20:38:23.581Z,98905.61
2023-03-27T20:40:54.932Z,98899.76
2023-03-27T20:43:28.263Z,98900.17
2023-03-27T20:46:03.884Z,98897.93
2023-03-27T20:48:39.666Z,98898.70
2023-03-27T20:51:15.038Z,98896.66
2023-03-27T20:53:54.700Z,98894.77
2023-03-27T20:56:28.293Z,98894.83
2023-03-27T20:59:03.073Z,98890.35
2023-03-27T21:01:38.194Z,98886.12
2023-03-27T21:04:12.024Z,98885.92
2023-03-27T21:06:44.617Z,98880.60
2023-03-27T21:09:19.945Z,98878.59
2023-03-27T21:11:52.148Z,98878.02
2023-03-27T21:14:28.558Z,98877.07
2023-03-27T21:16:58.627Z,98872.58
2023-03-27T21:21:00.418Z,98868.21
2023-03-27T21:23:33.192Z,98867.29
2023-03-27T21:26:06.394Z,98863.31
2023-03-27T21:28:35.138Z,98860.08
2023-03-27T21:31:08.030Z,98858.38
2023-03-27T21:33:43.466Z,98854.25
2023-03-27T21:36:18.462Z,98853.91
2023-03-27T21:38:47.619Z,98853.77
2023-03-27T21:41:16.095Z,98851.35
2023-03-27T21:43:44.124Z,98845.13
2023-03-27T21:46:12.133Z,98844.25
2023-03-27T21:48:44.740Z,98842.42
2023-03-27T21:51:14.545Z,98845.11
2023-03-27T21:53:47.928Z,98845.13
2023-03-27T21:56:16.848Z,98848.41
2023-03-27T21:58:46.420Z,98840.59
2023-03-27T22:01:14.605Z,98850.01
2023-03-27T22:03:43.123Z,98843.06
2023-03-27T22:06:13.326Z,98840.92
2023-03-27T22:08:49.877Z,98838.32
2023-03-27T22:11:18.492Z,98835.70
2023-03-27T22:13:50.845Z,98835.92
2023-03-27T22:16:19.520Z,98833.89
2023-03-27T22:18:49.102Z,98829.21
2023-03-27T22:21:21.618Z,98827.16
2023-03-27T22:23:51.912Z,98824.80
2023-03-27T22:26:22.519Z,98822.06
2023-03-27T22:28:52.056Z,98822.94
2023-03-27T22:31:21.332Z,98822.50
2023-03-27T22:33:49.202Z,98814.81
2023-03-27T22:36:19.341Z,98812.50
2023-03-27T22:38:47.664Z,98811.98
2023-03-27T22:41:20.426Z,98814.38
2023-03-27T22:43:49.916Z,98811.76
2023-03-27T22:46:20.417Z,98813.15
2023-03-27T22:48:49.862Z,98813.14
2023-03-27T22:51:21.296Z,98812.30
2023-03-27T22:53:54.980Z,98807.56
2023-03-27T22:56:25.220Z,98806.30
2023-03-27T22:58:53.812Z,98805.05
2023-03-27T23:01:25.236Z,98804.64
2023-03-27T23:03:58.562Z,98807.59
2023-03-27T23:06:27.929Z,98808.04
2023-03-27T23:09:00.317Z,98808.75
2023-03-27T23:11:30.952Z,98809.55
2023-03-27T23:14:04.447Z,98804.92
2023-03-27T23:16:36.871Z,98805.90
2023-03-27T23:19:05.892Z,98803.27
2023-03-27T23:21:34.241Z,98800.11
2023-03-27T23:24:05.535Z,98793.33
2023-03-27T23:26:36.745Z,98789.78
2023-03-27T23:29:07.871Z,98780.72
2023-03-27T23:31:36.119Z,98785.46
2023-03-27T23:34:06.730Z,98780.41
2023-03-27T23:36:36.944Z,98777.02
2023-03-27T23:39:14.901Z,98773.19
2023-03-27T23:41:42.250Z,98770.13
2023-03-27T23:44:10.284Z,98772.69
2023-03-27T23:46:43.122Z,98767.20
2023-03-27T23:49:14.965Z,98761.20
2023-03-27T23:51:45.523Z,98754.27
2023-03-27T23:54:16.106Z,98751.70
2023-03-27T23:56:50.887Z,98748.24
2023-03-27T23:59:17.914Z,98747.87
